Time;durP1;ratioP1;P1;durP2;ratioP2;P2;SDS_P1;SDS_P2;PMS_P1;PMS_P2;Temp;Humidity;BMP_temperature;BMP_pressure;BME280_temperature;BME280_humidity;BME280_pressure;Samples;Min_cycle;Max_cycle;Signal;HPM_P1;HPM_P2
2022/02/02 00:00:00;;;;;;;20.80;4.47;;;;;;;;;;4977535;28;20696;-74
2022/02/02 00:02:37;;;;;;;31.03;5.53;;;;;;;;;;4975537;28;20594;-75
2022/02/02 00:05:33;;;;;;;20.40;4.43;;;;;;;;;;4991759;28;20225;-74
2022/02/02 00:08:13;;;;;;;28.80;5.77;;;;;;;;;;4991952;28;20225;-74
2022/02/02 00:13:09;;;;;;;33.10;6.37;;;;;;;;;;4994445;28;20312;-75
2022/02/02 00:18:22;;;;;;;36.97;6.40;;;;;;;;;;4993541;28;20221;-74
2022/02/02 00:21:00;;;;;;;29.20;6.60;;;;;;;;;;4980171;28;20305;-74
2022/02/02 00:23:32;;;;;;;24.60;5.50;;;;;;;;;;4992007;28;20304;-75
2022/02/02 00:26:12;;;;;;;30.70;6.60;;;;;;;;;;4991832;28;20232;-75
2022/02/02 00:28:44;;;;;;;34.43;6.97;;;;;;;;;;4978251;28;20217;-74
2022/02/02 00:31:19;;;;;;;24.27;5.57;;;;;;;;;;4991501;28;20320;-74
2022/02/02 00:33:51;;;;;;;24.60;5.27;;;;;;;;;;4976391;28;20227;-75
2022/02/02 00:36:23;;;;;;;30.17;5.47;;;;;;;;;;4975306;28;20236;-74
2022/02/02 00:38:49;;;;;;;32.13;6.03;;;;;;;;;;4976059;28;20286;-74
2022/02/02 00:41:16;;;;;;;26.43;6.30;;;;;;;;;;4991456;28;20222;-74
2022/02/02 00:43:47;;;;;;;26.30;5.50;;;;;;;;;;4991056;28;20217;-74
2022/02/02 00:46:15;;;;;;;24.80;5.87;;;;;;;;;;4975020;28;20221;-74
2022/02/02 00:48:41;;;;;;;27.33;5.70;;;;;;;;;;4975536;28;20280;-75
2022/02/02 00:51:08;;;;;;;22.20;5.90;;;;;;;;;;4990964;28;20316;-74
2022/02/02 00:53:34;;;;;;;25.60;5.67;;;;;;;;;;4990832;28;20221;-73
2022/02/02 00:55:59;;;;;;;24.97;5.40;;;;;;;;;;4991075;28;20267;-73
2022/02/02 00:58:25;;;;;;;27.37;6.10;;;;;;;;;;4973889;28;20683;-74
2022/02/02 01:00:50;;;;;;;24.60;5.67;;;;;;;;;;4990986;28;20650;-75
2022/02/02 01:03:18;;;;;;;19.50;5.10;;;;;;;;;;4974706;28;20222;-74
2022/02/02 01:05:46;;;;;;;22.83;5.73;;;;;;;;;;4982426;28;20228;-74
2022/02/02 01:08:41;;;;;;;26.50;5.30;;;;;;;;;;4990731;28;20229;-74
2022/02/02 01:14:42;;;;;;;27.87;5.50;;;;;;;;;;4962119;28;20309;-74
2022/02/02 01:17:58;;;;;;;22.60;5.00;;;;;;;;;;4976770;28;20265;-73
2022/02/02 01:19:37;;;;;;;20.80;5.07;;;;;;;;;;4985229;28;20605;-75
2022/02/02 01:29:58;;;;;;;20.93;4.50;;;;;;;;;;4991975;28;20221;-74
2022/02/02 01:32:23;;;;;;;22.93;5.27;;;;;;;;;;4975137;28;20275;-74
2022/02/02 01:34:51;;;;;;;25.93;6.00;;;;;;;;;;4974565;28;20225;-73
2022/02/02 01:37:19;;;;;;;23.23;6.20;;;;;;;;;;4973836;28;20243;-74
2022/02/02 01:39:58;;;;;;;26.57;6.37;;;;;;;;;;4971084;28;20230;-75
2022/02/02 01:42:31;;;;;;;22.63;5.87;;;;;;;;;;4970516;28;20217;-73
2022/02/02 01:45:14;;;;;;;26.20;6.10;;;;;;;;;;4978463;28;20703;-73
2022/02/02 01:47:52;;;;;;;24.87;6.00;;;;;;;;;;4961916;28;20221;-74
2022/02/02 01:50:35;;;;;;;31.87;5.60;;;;;;;;;;4975162;28;20307;-75
2022/02/02 01:55:45;;;;;;;24.27;5.17;;;;;;;;;;4990695;28;20686;-74
2022/02/02 02:00:45;;;;;;;18.30;5.00;;;;;;;;;;4990887;28;20239;-74
2022/02/02 02:03:14;;;;;;;16.07;3.63;;;;;;;;;;4972603;28;20649;-74
2022/02/02 02:05:41;;;;;;;14.60;3.47;;;;;;;;;;4990341;28;20221;-74
2022/02/02 02:08:09;;;;;;;15.10;3.73;;;;;;;;;;4994259;28;20217;-75
2022/02/02 02:10:35;;;;;;;18.00;4.00;;;;;;;;;;4974606;28;20214;-75
2022/02/02 02:13:14;;;;;;;19.17;4.73;;;;;;;;;;4989344;28;20221;-75
2022/02/02 02:15:45;;;;;;;25.97;4.80;;;;;;;;;;4976072;28;20229;-76
2022/02/02 02:18:10;;;;;;;24.93;6.27;;;;;;;;;;4991299;28;20772;-75
2022/02/02 02:20:39;;;;;;;24.33;5.87;;;;;;;;;;4955010;28;20604;-75
2022/02/02 02:23:07;;;;;;;35.63;6.07;;;;;;;;;;4965115;28;20218;-75
2022/02/02 02:25:37;;;;;;;34.60;6.20;;;;;;;;;;4958496;28;20229;-75
2022/02/02 02:28:16;;;;;;;30.67;5.73;;;;;;;;;;4989943;28;20312;-73
2022/02/02 02:30:53;;;;;;;34.07;6.83;;;;;;;;;;4970536;28;20719;-74
2022/02/02 03:01:07;;;;;;;26.77;5.20;;;;;;;;;;4992803;28;20225;-75
2022/02/02 03:31:20;;;;;;;22.00;4.87;;;;;;;;;;4974729;28;20232;-75
2022/02/02 03:53:33;;;;;;;23.77;4.80;;;;;;;;;;4991904;28;20221;-74
2022/02/02 04:04:03;;;;;;;18.20;4.83;;;;;;;;;;4991823;28;20263;-74
2022/02/02 04:06:28;;;;;;;26.90;5.33;;;;;;;;;;4984297;28;20275;-74
2022/02/02 04:08:56;;;;;;;23.87;5.27;;;;;;;;;;4992936;28;20229;-75
2022/02/02 04:55:06;;;;;;;22.00;5.30;;;;;;;;;;4972179;28;20808;-73
2022/02/02 04:58:43;;;;;;;24.53;5.43;;;;;;;;;;4983694;28;20225;-73
2022/02/02 05:05:53;;;;;;;19.80;4.17;;;;;;;;;;4995703;28;20225;-74
2022/02/02 05:11:46;;;;;;;17.37;4.80;;;;;;;;;;4992828;28;20293;-74
2022/02/02 05:52:46;;;;;;;26.33;5.33;;;;;;;;;;4989618;28;20217;-74
2022/02/02 05:55:13;;;;;;;24.87;4.83;;;;;;;;;;4991365;28;20241;-74
2022/02/02 05:57:45;;;;;;;21.73;5.17;;;;;;;;;;4990718;28;20233;-73
2022/02/02 06:00:11;;;;;;;23.20;4.93;;;;;;;;;;4953930;28;20676;-74
2022/02/02 06:02:47;;;;;;;19.90;4.53;;;;;;;;;;4972026;28;20611;-73
2022/02/02 06:05:16;;;;;;;24.40;4.93;;;;;;;;;;4982047;28;20239;-75
2022/02/02 06:07:44;;;;;;;19.53;4.27;;;;;;;;;;5011296;28;20447;-74
2022/02/02 06:10:14;;;;;;;19.43;4.87;;;;;;;;;;5009897;28;20205;-74
2022/02/02 06:12:41;;;;;;;23.03;5.40;;;;;;;;;;5008820;28;20217;-74
2022/02/02 06:15:13;;;;;;;21.33;4.83;;;;;;;;;;4968766;28;20239;-74
2022/02/02 06:17:45;;;;;;;24.77;4.93;;;;;;;;;;4976385;28;20229;-73
2022/02/02 06:20:11;;;;;;;22.80;3.97;;;;;;;;;;4950458;28;20226;-73
2022/02/02 06:22:41;;;;;;;20.37;4.73;;;;;;;;;;4956614;28;20248;-74
2022/02/02 06:25:20;;;;;;;22.13;4.40;;;;;;;;;;4974488;28;20276;-73
2022/02/02 06:27:59;;;;;;;22.63;4.60;;;;;;;;;;4992432;28;20245;-74
2022/02/02 06:30:26;;;;;;;20.73;4.50;;;;;;;;;;4991853;28;20229;-74
2022/02/02 06:32:52;;;;;;;26.87;4.47;;;;;;;;;;4975850;28;20614;-75
2022/02/02 06:35:19;;;;;;;21.93;4.90;;;;;;;;;;4977781;28;20959;-73
2022/02/02 06:37:47;;;;;;;25.13;4.90;;;;;;;;;;4996568;28;20236;-73
2022/02/02 06:40:16;;;;;;;23.93;5.53;;;;;;;;;;4952370;28;20233;-74
2022/02/02 06:42:42;;;;;;;21.33;4.13;;;;;;;;;;4961885;28;20271;-74
2022/02/02 06:45:11;;;;;;;26.57;4.70;;;;;;;;;;4957497;28;20748;-73
2022/02/02 06:47:40;;;;;;;15.13;3.53;;;;;;;;;;4958911;28;20607;-75
2022/02/02 06:50:15;;;;;;;20.37;3.63;;;;;;;;;;4962840;28;20222;-75
2022/02/02 06:52:58;;;;;;;14.83;3.40;;;;;;;;;;4974293;28;20217;-71
2022/02/02 06:55:32;;;;;;;14.47;3.80;;;;;;;;;;4993409;28;20209;-72
2022/02/02 06:58:16;;;;;;;17.23;3.97;;;;;;;;;;4945405;28;20229;-75
2022/02/02 07:03:45;;;;;;;16.07;3.87;;;;;;;;;;4994146;28;20586;-73
2022/02/02 07:06:30;;;;;;;20.10;3.53;;;;;;;;;;4980870;28;20246;-73
2022/02/02 07:11:43;;;;;;;12.07;2.80;;;;;;;;;;4976661;28;20228;-74
2022/02/02 07:14:20;;;;;;;16.23;3.30;;;;;;;;;;4964233;28;20237;-73
2022/02/02 07:19:39;;;;;;;16.17;3.43;;;;;;;;;;4977470;28;20311;-75
2022/02/02 07:22:35;;;;;;;13.30;2.83;;;;;;;;;;4989765;28;20222;-73
2022/02/02 07:30:23;;;;;;;10.87;2.17;;;;;;;;;;4993022;28;20279;-75
2022/02/02 07:32:55;;;;;;;11.47;2.67;;;;;;;;;;4978718;28;20275;-75
2022/02/02 07:35:28;;;;;;;7.97;2.47;;;;;;;;;;4991926;28;20615;-75
2022/02/02 07:37:55;;;;;;;10.37;2.77;;;;;;;;;;4984906;28;20297;-74
2022/02/02 07:40:23;;;;;;;12.83;2.67;;;;;;;;;;4976351;28;20637;-72
2022/02/02 07:42:58;;;;;;;12.33;2.63;;;;;;;;;;4992634;28;20283;-73
2022/02/02 07:45:24;;;;;;;12.10;2.30;;;;;;;;;;4975860;28;20228;-73
2022/02/02 07:48:00;;;;;;;12.07;3.40;;;;;;;;;;4960093;28;20216;-75
2022/02/02 07:50:33;;;;;;;14.30;3.10;;;;;;;;;;4975529;28;20312;-73
2022/02/02 07:53:04;;;;;;;12.43;3.50;;;;;;;;;;4978259;28;20228;-73
2022/02/02 07:55:33;;;;;;;12.10;3.00;;;;;;;;;;4992570;28;20244;-74
2022/02/02 07:58:06;;;;;;;13.37;3.80;;;;;;;;;;4992629;28;20699;-73
2022/02/02 08:00:35;;;;;;;16.73;3.23;;;;;;;;;;4994483;28;20228;-73
2022/02/02 08:03:12;;;;;;;10.83;3.07;;;;;;;;;;4991626;28;20308;-73
2022/02/02 08:05:46;;;;;;;14.27;3.33;;;;;;;;;;4977636;28;20217;-72
2022/02/02 08:10:38;;;;;;;12.77;2.97;;;;;;;;;;4993137;28;20225;-74
2022/02/02 08:13:14;;;;;;;18.53;3.20;;;;;;;;;;4975968;28;20218;-74
2022/02/02 08:15:40;;;;;;;11.50;2.90;;;;;;;;;;4977334;28;20599;-74
2022/02/02 08:18:09;;;;;;;15.17;3.47;;;;;;;;;;4960643;28;20221;-73
2022/02/02 08:20:35;;;;;;;11.70;2.50;;;;;;;;;;4960626;28;20245;-74
2022/02/02 08:23:03;;;;;;;10.63;2.87;;;;;;;;;;4968953;28;20275;-72
2022/02/02 08:25:30;;;;;;;15.13;2.70;;;;;;;;;;4977558;28;20671;-75
2022/02/02 08:28:01;;;;;;;15.63;3.20;;;;;;;;;;4977258;28;20236;-74
2022/02/02 08:30:29;;;;;;;12.00;3.30;;;;;;;;;;4992159;28;20695;-73
2022/02/02 08:33:00;;;;;;;14.43;2.80;;;;;;;;;;4991865;28;20213;-74
2022/02/02 08:35:26;;;;;;;17.63;3.30;;;;;;;;;;4983526;28;20228;-74
2022/02/02 08:40:54;;;;;;;13.50;2.50;;;;;;;;;;4963460;28;20762;-74
2022/02/02 08:43:36;;;;;;;14.10;3.00;;;;;;;;;;4976494;28;20303;-74
2022/02/02 08:46:09;;;;;;;11.17;3.10;;;;;;;;;;4992131;28;20220;-73
2022/02/02 08:48:36;;;;;;;13.90;3.47;;;;;;;;;;4976307;28;20229;-74
2022/02/02 08:51:08;;;;;;;11.63;2.93;;;;;;;;;;4975863;28;20242;-73
2022/02/02 08:54:03;;;;;;;10.33;3.13;;;;;;;;;;4973086;28;20699;-75
2022/02/02 08:59:22;;;;;;;16.90;2.83;;;;;;;;;;4979333;28;20231;-77
2022/02/02 09:01:50;;;;;;;13.70;3.03;;;;;;;;;;4992654;28;20209;-78
2022/02/02 09:07:00;;;;;;;11.87;2.90;;;;;;;;;;4992134;28;20217;-76
2022/02/02 09:23:46;;;;;;;11.60;2.63;;;;;;;;;;4977311;28;20217;-74
2022/02/02 09:34:02;;;;;;;12.97;2.80;;;;;;;;;;4955697;28;20237;-73
2022/02/02 09:36:32;;;;;;;8.97;2.70;;;;;;;;;;4982874;28;20221;-74
2022/02/02 09:39:01;;;;;;;11.83;2.40;;;;;;;;;;4974712;28;20268;-74
2022/02/02 09:41:43;;;;;;;8.00;2.07;;;;;;;;;;4974054;28;20224;-74
2022/02/02 09:44:11;;;;;;;6.93;2.20;;;;;;;;;;4976519;28;20222;-73
2022/02/02 09:49:42;;;;;;;10.63;2.07;;;;;;;;;;4976465;28;20232;-74
2022/02/02 09:52:16;;;;;;;11.80;2.67;;;;;;;;;;4976807;28;20214;-74
2022/02/02 10:05:45;;;;;;;8.27;1.90;;;;;;;;;;4967934;28;20213;-73
2022/02/02 10:16:20;;;;;;;12.03;2.73;;;;;;;;;;4981155;28;20217;-74
2022/02/02 10:18:48;;;;;;;18.03;3.27;;;;;;;;;;4979656;28;20243;-75
2022/02/02 10:21:13;;;;;;;10.67;2.77;;;;;;;;;;4992848;28;20275;-74
2022/02/02 10:23:41;;;;;;;12.30;2.93;;;;;;;;;;4974100;28;20604;-73
2022/02/02 10:26:30;;;;;;;8.43;2.50;;;;;;;;;;4976833;28;20221;-73
2022/02/02 10:29:12;;;;;;;14.67;3.00;;;;;;;;;;4981664;28;20209;-76
2022/02/02 10:31:48;;;;;;;12.83;3.00;;;;;;;;;;4997716;28;20304;-76
2022/02/02 10:34:19;;;;;;;10.57;2.73;;;;;;;;;;4994498;28;20229;-75
2022/02/02 10:37:06;;;;;;;10.70;2.87;;;;;;;;;;4962765;28;20236;-75
2022/02/02 10:39:49;;;;;;;14.43;3.20;;;;;;;;;;4990574;28;20241;-75
2022/02/02 10:42:38;;;;;;;12.23;2.60;;;;;;;;;;4974608;28;20645;-74
2022/02/02 10:45:24;;;;;;;9.43;2.90;;;;;;;;;;4978862;28;20225;-75
2022/02/02 10:47:58;;;;;;;9.73;2.60;;;;;;;;;;4955873;28;20716;-75
2022/02/02 10:50:35;;;;;;;12.33;2.73;;;;;;;;;;4999093;28;20699;-76
2022/02/02 10:56:01;;;;;;;6.93;2.13;;;;;;;;;;4981331;28;20695;-74
2022/02/02 10:59:03;;;;;;;15.27;2.70;;;;;;;;;;5004626;28;20291;-74
2022/02/02 11:06:42;;;;;;;13.13;2.57;;;;;;;;;;4974757;28;20317;-74
2022/02/02 11:09:11;;;;;;;11.80;2.67;;;;;;;;;;4993527;28;20229;-74
2022/02/02 11:11:46;;;;;;;12.03;2.73;;;;;;;;;;4974832;28;20798;-74
2022/02/02 11:14:44;;;;;;;16.27;3.03;;;;;;;;;;4990905;28;20217;-75
2022/02/02 11:17:23;;;;;;;15.33;2.67;;;;;;;;;;4976783;28;20704;-74
2022/02/02 11:19:50;;;;;;;9.43;2.60;;;;;;;;;;4963890;28;20245;-73
2022/02/02 11:22:22;;;;;;;4.97;1.80;;;;;;;;;;4973433;28;20225;-73
2022/02/02 11:24:48;;;;;;;7.87;2.03;;;;;;;;;;4992505;28;20225;-72
2022/02/02 11:27:33;;;;;;;6.63;1.97;;;;;;;;;;4976384;28;20232;-73
2022/02/02 11:30:22;;;;;;;12.20;2.20;;;;;;;;;;4977025;28;20229;-74
2022/02/02 11:32:47;;;;;;;9.80;2.10;;;;;;;;;;4993634;28;20763;-74
2022/02/02 11:35:46;;;;;;;11.90;2.17;;;;;;;;;;4976306;28;20225;-73
2022/02/02 11:38:35;;;;;;;9.33;2.07;;;;;;;;;;4993221;28;20233;-74
2022/02/02 11:41:09;;;;;;;6.13;2.07;;;;;;;;;;4977672;28;20233;-74
2022/02/02 11:44:06;;;;;;;11.90;2.30;;;;;;;;;;4993083;28;20245;-75
2022/02/02 11:47:21;;;;;;;12.13;2.53;;;;;;;;;;4991185;28;20233;-73
2022/02/02 11:52:53;;;;;;;11.73;2.53;;;;;;;;;;4976860;28;20240;-75
2022/02/02 11:55:18;;;;;;;10.50;2.20;;;;;;;;;;4976449;28;20241;-72
2022/02/02 11:57:53;;;;;;;7.77;2.33;;;;;;;;;;4993380;28;20753;-74
2022/02/02 12:03:17;;;;;;;10.30;2.17;;;;;;;;;;4961337;28;20580;-76
2022/02/02 12:05:57;;;;;;;7.57;2.30;;;;;;;;;;4998861;28;20217;-74
2022/02/02 12:58:19;;;;;;;6.80;1.60;;;;;;;;;;4985067;28;20229;-76
2022/02/02 13:03:15;;;;;;;5.43;1.53;;;;;;;;;;4974751;28;20233;-73
2022/02/02 13:05:41;;;;;;;8.33;2.20;;;;;;;;;;4992559;28;20225;-75
2022/02/02 13:08:07;;;;;;;10.73;2.20;;;;;;;;;;4974459;28;20228;-75
2022/02/02 13:10:36;;;;;;;10.27;2.20;;;;;;;;;;4958357;28;20840;-74
2022/02/02 13:13:19;;;;;;;8.33;1.80;;;;;;;;;;4974605;28;20312;-73
2022/02/02 13:15:51;;;;;;;5.77;1.70;;;;;;;;;;4988637;28;20248;-75
2022/02/02 13:21:03;;;;;;;9.37;2.23;;;;;;;;;;4991547;28;20249;-75
2022/02/02 13:26:21;;;;;;;8.97;1.80;;;;;;;;;;4997651;28;20224;-74
2022/02/02 13:31:29;;;;;;;5.03;1.43;;;;;;;;;;4978618;28;20229;-75
2022/02/02 13:34:03;;;;;;;4.17;1.80;;;;;;;;;;4976897;28;20297;-75
2022/02/02 13:36:49;;;;;;;4.23;1.17;;;;;;;;;;4987762;28;20213;-74
2022/02/02 13:45:42;;;;;;;11.53;4.33;;;;;;;;;;4975619;28;20225;-73
2022/02/02 14:01:09;;;;;;;8.10;2.00;;;;;;;;;;4989007;28;20232;-74
2022/02/02 14:06:43;;;;;;;3.27;1.50;;;;;;;;;;4990267;28;20225;-74
2022/02/02 14:31:14;;;;;;;5.90;1.60;;;;;;;;;;4991480;28;20228;-74
2022/02/02 14:33:47;;;;;;;8.47;1.77;;;;;;;;;;4969639;28;20257;-73
2022/02/02 14:36:16;;;;;;;4.53;1.97;;;;;;;;;;4958116;28;20252;-75
2022/02/02 14:38:50;;;;;;;7.77;2.20;;;;;;;;;;4986370;28;20258;-73
2022/02/02 14:46:22;;;;;;;8.93;2.70;;;;;;;;;;4989218;28;20260;-74
2022/02/02 14:49:00;;;;;;;12.07;3.43;;;;;;;;;;4974630;28;20224;-75
2022/02/02 14:54:08;;;;;;;5.83;1.80;;;;;;;;;;4986093;28;20225;-76
2022/02/02 15:05:17;;;;;;;11.83;3.30;;;;;;;;;;4973318;28;20225;-75
2022/02/02 15:09:01;;;;;;;5.40;1.50;;;;;;;;;;4993798;28;20232;-74
2022/02/02 15:23:57;;;;;;;8.00;1.77;;;;;;;;;;4979718;28;20304;-70
2022/02/02 15:27:36;;;;;;;9.90;2.10;;;;;;;;;;4991842;28;20299;-74
2022/02/02 15:32:48;;;;;;;10.40;3.10;;;;;;;;;;4994554;28;20233;-75
2022/02/02 15:35:20;;;;;;;11.37;3.47;;;;;;;;;;4977600;28;20609;-75
2022/02/02 15:40:15;;;;;;;8.70;2.00;;;;;;;;;;4993551;28;20232;-73
2022/02/02 15:58:22;;;;;;;8.77;2.53;;;;;;;;;;4975036;28;20220;-75
2022/02/02 16:03:33;;;;;;;9.67;2.37;;;;;;;;;;4960522;28;20229;-74
2022/02/02 16:06:09;;;;;;;11.43;2.67;;;;;;;;;;4977952;28;20300;-73
2022/02/02 16:08:39;;;;;;;10.60;2.13;;;;;;;;;;4992243;28;20248;-73
2022/02/02 16:13:41;;;;;;;10.80;3.60;;;;;;;;;;4961610;28;20237;-75
2022/02/02 16:37:59;;;;;;;12.97;3.77;;;;;;;;;;4977234;28;20315;-74
2022/02/02 16:40:31;;;;;;;13.60;3.20;;;;;;;;;;4976152;28;20229;-73
2022/02/02 16:43:15;;;;;;;14.03;3.60;;;;;;;;;;4992097;28;20651;-73
2022/02/02 16:45:46;;;;;;;12.93;3.33;;;;;;;;;;4977741;28;20287;-73
2022/02/02 16:48:12;;;;;;;18.30;3.33;;;;;;;;;;4959866;28;20221;-73
2022/02/02 16:50:43;;;;;;;13.00;3.20;;;;;;;;;;4975481;28;20324;-74
2022/02/02 17:31:02;;;;;;;17.13;3.43;;;;;;;;;;4986468;28;20240;-75
2022/02/02 17:33:33;;;;;;;20.63;3.73;;;;;;;;;;4992275;28;20228;-73
2022/02/02 17:38:48;;;;;;;13.80;3.83;;;;;;;;;;4989659;28;20253;-74
2022/02/02 18:19:43;;;;;;;23.00;6.43;;;;;;;;;;4958673;28;20225;-70
2022/02/02 18:22:09;;;;;;;19.77;6.37;;;;;;;;;;4955294;28;20229;-72
2022/02/02 18:24:50;;;;;;;19.93;6.50;;;;;;;;;;4954998;28;20712;-73
2022/02/02 18:27:22;;;;;;;18.97;8.17;;;;;;;;;;4984513;28;20236;-74
2022/02/02 18:30:14;;;;;;;33.53;14.47;;;;;;;;;;4975702;28;20228;-71
2022/02/02 18:32:57;;;;;;;26.80;12.87;;;;;;;;;;4962600;28;20225;-73
2022/02/02 18:35:24;;;;;;;30.67;13.60;;;;;;;;;;4991817;28;20248;-72
2022/02/02 18:56:38;;;;;;;22.10;10.20;;;;;;;;;;4980393;28;20292;-73
2022/02/02 19:02:06;;;;;;;24.67;9.17;;;;;;;;;;4993650;28;20213;-71
2022/02/02 19:56:24;;;;;;;15.73;6.60;;;;;;;;;;4979330;28;20703;-76
2022/02/02 20:12:16;;;;;;;20.30;8.73;;;;;;;;;;4974568;28;20747;-74
2022/02/02 20:14:42;;;;;;;22.70;7.43;;;;;;;;;;4967708;28;20220;-73
2022/02/02 20:17:11;;;;;;;14.47;6.80;;;;;;;;;;4989686;28;20937;-73
2022/02/02 20:19:49;;;;;;;22.03;6.77;;;;;;;;;;4974795;28;20232;-74
2022/02/02 20:22:23;;;;;;;13.07;5.40;;;;;;;;;;4974817;28;20221;-73
2022/02/02 20:24:57;;;;;;;13.87;5.43;;;;;;;;;;4987218;28;20233;-73
2022/02/02 20:27:28;;;;;;;16.50;5.40;;;;;;;;;;4987850;28;20221;-73
2022/02/02 20:30:00;;;;;;;15.37;4.90;;;;;;;;;;4991825;28;20229;-73
2022/02/02 20:32:25;;;;;;;19.00;4.43;;;;;;;;;;4956046;28;20641;-73
2022/02/02 20:34:53;;;;;;;112.37;43.80;;;;;;;;;;4962914;28;20218;-74
2022/02/02 20:37:21;;;;;;;147.50;62.80;;;;;;;;;;4974848;28;20229;-73
2022/02/02 20:39:59;;;;;;;53.47;23.33;;;;;;;;;;4990730;28;20340;-73
2022/02/02 21:14:36;;;;;;;16.10;5.90;;;;;;;;;;4975352;28;20573;-75
2022/02/02 21:17:07;;;;;;;15.83;5.70;;;;;;;;;;4989981;28;20311;-73
2022/02/02 21:19:47;;;;;;;19.77;4.63;;;;;;;;;;4955555;28;20602;-72
2022/02/02 21:22:12;;;;;;;14.87;4.23;;;;;;;;;;4942212;28;20838;-72
2022/02/02 21:27:39;;;;;;;15.23;3.53;;;;;;;;;;4978818;28;20237;-73
2022/02/02 21:30:09;;;;;;;11.77;2.93;;;;;;;;;;4974897;28;20228;-72
2022/02/02 21:32:37;;;;;;;12.30;3.57;;;;;;;;;;4974893;28;20210;-73
2022/02/02 21:35:08;;;;;;;17.93;3.00;;;;;;;;;;4989942;28;20246;-73
2022/02/02 21:37:44;;;;;;;12.63;3.63;;;;;;;;;;4992002;28;20236;-73
2022/02/02 21:40:19;;;;;;;11.10;3.07;;;;;;;;;;4974734;28;20236;-72
2022/02/02 21:42:47;;;;;;;16.83;3.70;;;;;;;;;;4960093;28;20221;-75
2022/02/02 21:45:17;;;;;;;15.87;3.90;;;;;;;;;;4975218;28;20226;-74
2022/02/02 21:47:46;;;;;;;13.07;3.07;;;;;;;;;;4991340;28;20713;-75
2022/02/02 21:50:17;;;;;;;10.37;3.20;;;;;;;;;;4991304;28;20236;-75
2022/02/02 21:52:42;;;;;;;10.43;3.77;;;;;;;;;;4974816;28;20224;-75
2022/02/02 21:55:11;;;;;;;13.87;3.60;;;;;;;;;;4974216;28;20221;-72
2022/02/02 21:57:39;;;;;;;13.03;3.47;;;;;;;;;;4958510;28;20226;-75
2022/02/02 22:00:06;;;;;;;17.60;3.80;;;;;;;;;;4990837;28;20272;-73
2022/02/02 22:02:39;;;;;;;10.37;3.20;;;;;;;;;;4974993;28;20216;-73
2022/02/02 22:05:09;;;;;;;12.83;3.87;;;;;;;;;;4973018;28;20749;-73
2022/02/02 22:07:35;;;;;;;12.07;3.50;;;;;;;;;;4974567;28;20722;-73
2022/02/02 22:10:07;;;;;;;12.03;4.17;;;;;;;;;;4974211;28;20221;-74
2022/02/02 22:12:39;;;;;;;19.60;4.13;;;;;;;;;;4974636;28;20225;-73
2022/02/02 22:15:08;;;;;;;15.97;4.30;;;;;;;;;;4989837;28;20218;-73
2022/02/02 22:17:34;;;;;;;12.63;3.83;;;;;;;;;;4973669;28;20648;-73
2022/02/02 22:20:04;;;;;;;15.23;4.50;;;;;;;;;;4990116;28;20217;-73
2022/02/02 22:22:30;;;;;;;18.43;3.90;;;;;;;;;;4991414;28;20231;-73
2022/02/02 22:24:58;;;;;;;19.23;4.20;;;;;;;;;;4974822;28;20313;-74
2022/02/02 22:27:24;;;;;;;13.40;3.60;;;;;;;;;;4974238;28;20229;-75
2022/02/02 22:29:52;;;;;;;13.00;3.70;;;;;;;;;;4990142;28;20225;-74
2022/02/02 22:32:22;;;;;;;17.77;3.97;;;;;;;;;;4989448;28;20225;-74
2022/02/02 22:34:48;;;;;;;20.30;4.13;;;;;;;;;;4958065;28;20222;-75
2022/02/02 22:37:18;;;;;;;20.13;4.10;;;;;;;;;;4989921;28;20244;-74
2022/02/02 22:39:44;;;;;;;13.00;3.30;;;;;;;;;;4973896;28;20703;-72
2022/02/02 22:42:11;;;;;;;10.73;3.50;;;;;;;;;;4957611;28;20227;-73
2022/02/02 22:44:39;;;;;;;12.47;3.63;;;;;;;;;;4991112;28;20240;-73
2022/02/02 22:47:07;;;;;;;20.60;3.93;;;;;;;;;;4989939;28;20226;-73
2022/02/02 22:49:37;;;;;;;17.43;3.80;;;;;;;;;;4959546;28;20695;-74
2022/02/02 22:52:06;;;;;;;14.20;3.93;;;;;;;;;;4942599;28;20237;-74
2022/02/02 22:54:32;;;;;;;16.37;4.00;;;;;;;;;;4973110;28;20218;-73
2022/02/02 22:56:57;;;;;;;16.67;3.80;;;;;;;;;;4953199;28;20290;-75
2022/02/02 22:59:25;;;;;;;19.63;4.33;;;;;;;;;;4969991;28;20626;-75
2022/02/02 23:02:01;;;;;;;17.87;4.00;;;;;;;;;;4999664;28;20237;-75
2022/02/02 23:04:31;;;;;;;22.23;3.67;;;;;;;;;;4954755;28;20222;-76
2022/02/02 23:07:03;;;;;;;19.60;4.37;;;;;;;;;;4984973;28;20218;-73
2022/02/02 23:09:32;;;;;;;17.43;4.27;;;;;;;;;;4973022;28;20230;-75
2022/02/02 23:11:57;;;;;;;16.60;3.77;;;;;;;;;;4972298;28;20230;-72
2022/02/02 23:14:28;;;;;;;14.17;4.00;;;;;;;;;;4971675;28;20305;-75
2022/02/02 23:16:57;;;;;;;17.67;3.83;;;;;;;;;;4977857;28;20225;-73
2022/02/02 23:19:24;;;;;;;15.23;3.70;;;;;;;;;;4961762;28;20323;-75
2022/02/02 23:21:52;;;;;;;16.13;4.13;;;;;;;;;;4995251;28;20683;-75
2022/02/02 23:24:18;;;;;;;13.93;3.30;;;;;;;;;;4994284;28;20225;-76
2022/02/02 23:26:47;;;;;;;17.37;3.77;;;;;;;;;;4961482;28;20304;-74
2022/02/02 23:29:15;;;;;;;17.90;3.53;;;;;;;;;;4960681;28;20221;-74
2022/02/02 23:31:44;;;;;;;16.83;3.90;;;;;;;;;;4976992;28;20229;-74
2022/02/02 23:34:13;;;;;;;21.87;6.07;;;;;;;;;;4976259;28;20221;-75
2022/02/02 23:36:40;;;;;;;17.33;4.13;;;;;;;;;;4992319;28;20275;-74
2022/02/02 23:39:08;;;;;;;18.00;4.07;;;;;;;;;;4976899;28;20661;-74
2022/02/02 23:44:21;;;;;;;15.07;3.20;;;;;;;;;;4992641;28;20225;-74
2022/02/02 23:46:48;;;;;;;18.20;3.17;;;;;;;;;;4994043;28;20221;-75
2022/02/02 23:49:20;;;;;;;18.13;3.83;;;;;;;;;;4975934;28;20264;-74
2022/02/02 23:51:49;;;;;;;15.47;3.80;;;;;;;;;;4993643;28;20694;-74
2022/02/02 23:54:15;;;;;;;13.83;3.37;;;;;;;;;;4960307;28;20233;-74
2022/02/02 23:59:20;;;;;;;31.47;9.63;;;;;;;;;;4993107;28;20240;-74
